sensor_id;sensor_type;location;lat;lon;timestamp;P1;durP1;ratioP1;P2;durP2;ratioP2
5867;SDS011;2960;49.142;7.768;2022-10-16T00:00:45;9.67;;;3.10;;
5867;SDS011;2960;49.142;7.768;2022-10-16T00:03:12;9.70;;;3.30;;
5867;SDS011;2960;49.142;7.768;2022-10-16T00:05:39;9.83;;;3.40;;
5867;SDS011;2960;49.142;7.768;2022-10-16T00:08:09;9.57;;;2.80;;
5867;SDS011;2960;49.142;7.768;2022-10-16T00:10:37;9.67;;;3.30;;
5867;SDS011;2960;49.142;7.768;2022-10-16T00:13:04;10.00;;;3.30;;
5867;SDS011;2960;49.142;7.768;2022-10-16T00:15:34;10.23;;;3.33;;
5867;SDS011;2960;49.142;7.768;2022-10-16T00:18:06;9.70;;;3.20;;
5867;SDS011;2960;49.142;7.768;2022-10-16T00:20:33;9.67;;;3.40;;
5867;SDS011;2960;49.142;7.768;2022-10-16T00:23:02;9.70;;;3.20;;
5867;SDS011;2960;49.142;7.768;2022-10-16T00:25:30;9.77;;;3.07;;
5867;SDS011;2960;49.142;7.768;2022-10-16T00:27:58;9.77;;;3.40;;
5867;SDS011;2960;49.142;7.768;2022-10-16T00:30:26;11.00;;;3.20;;
5867;SDS011;2960;49.142;7.768;2022-10-16T00:32:55;9.80;;;3.10;;
5867;SDS011;2960;49.142;7.768;2022-10-16T00:35:22;9.57;;;3.17;;
5867;SDS011;2960;49.142;7.768;2022-10-16T00:37:49;10.23;;;3.47;;
5867;SDS011;2960;49.142;7.768;2022-10-16T00:40:16;9.57;;;3.10;;
5867;SDS011;2960;49.142;7.768;2022-10-16T00:42:44;9.60;;;3.00;;
5867;SDS011;2960;49.142;7.768;2022-10-16T00:45:11;9.47;;;3.00;;
5867;SDS011;2960;49.142;7.768;2022-10-16T00:47:39;9.73;;;3.40;;
5867;SDS011;2960;49.142;7.768;2022-10-16T00:50:15;9.67;;;3.30;;
5867;SDS011;2960;49.142;7.768;2022-10-16T00:52:56;10.10;;;3.40;;
5867;SDS011;2960;49.142;7.768;2022-10-16T00:55:25;9.80;;;3.50;;
5867;SDS011;2960;49.142;7.768;2022-10-16T00:57:53;9.53;;;3.10;;
5867;SDS011;2960;49.142;7.768;2022-10-16T01:00:21;9.87;;;3.23;;
5867;SDS011;2960;49.142;7.768;2022-10-16T01:02:51;9.70;;;3.20;;
5867;SDS011;2960;49.142;7.768;2022-10-16T01:05:21;9.63;;;3.13;;
5867;SDS011;2960;49.142;7.768;2022-10-16T01:07:52;9.60;;;3.17;;
5867;SDS011;2960;49.142;7.768;2022-10-16T01:10:26;9.50;;;3.00;;
5867;SDS011;2960;49.142;7.768;2022-10-16T01:13:03;9.70;;;3.10;;
5867;SDS011;2960;49.142;7.768;2022-10-16T01:15:33;9.93;;;3.37;;
5867;SDS011;2960;49.142;7.768;2022-10-16T01:18:05;9.67;;;3.30;;
5867;SDS011;2960;49.142;7.768;2022-10-16T01:20:42;10.17;;;3.17;;
5867;SDS011;2960;49.142;7.768;2022-10-16T01:23:16;10.30;;;3.37;;
5867;SDS011;2960;49.142;7.768;2022-10-16T01:29:07;12.67;;;3.33;;
5867;SDS011;2960;49.142;7.768;2022-10-16T01:31:40;9.97;;;3.03;;
5867;SDS011;2960;49.142;7.768;2022-10-16T01:34:14;9.50;;;3.10;;
5867;SDS011;2960;49.142;7.768;2022-10-16T01:36:47;9.63;;;3.07;;
5867;SDS011;2960;49.142;7.768;2022-10-16T01:39:18;9.70;;;3.10;;
5867;SDS011;2960;49.142;7.768;2022-10-16T01:41:52;9.73;;;3.20;;
5867;SDS011;2960;49.142;7.768;2022-10-16T01:44:26;9.90;;;3.30;;
5867;SDS011;2960;49.142;7.768;2022-10-16T01:46:57;10.20;;;3.40;;
5867;SDS011;2960;49.142;7.768;2022-10-16T01:49:27;9.70;;;3.20;;
5867;SDS011;2960;49.142;7.768;2022-10-16T01:51:59;9.73;;;3.27;;
5867;SDS011;2960;49.142;7.768;2022-10-16T01:54:32;9.63;;;3.13;;
5867;SDS011;2960;49.142;7.768;2022-10-16T01:57:06;10.00;;;3.30;;
5867;SDS011;2960;49.142;7.768;2022-10-16T01:59:39;10.20;;;3.13;;
5867;SDS011;2960;49.142;7.768;2022-10-16T02:02:09;10.30;;;3.30;;
5867;SDS011;2960;49.142;7.768;2022-10-16T02:04:39;9.60;;;3.07;;
5867;SDS011;2960;49.142;7.768;2022-10-16T02:07:11;9.67;;;3.20;;
5867;SDS011;2960;49.142;7.768;2022-10-16T02:09:39;11.30;;;3.30;;
5867;SDS011;2960;49.142;7.768;2022-10-16T02:12:07;10.10;;;3.50;;
5867;SDS011;2960;49.142;7.768;2022-10-16T02:14:40;9.97;;;3.30;;
5867;SDS011;2960;49.142;7.768;2022-10-16T02:17:11;9.57;;;3.30;;
5867;SDS011;2960;49.142;7.768;2022-10-16T02:19:42;9.77;;;3.30;;
5867;SDS011;2960;49.142;7.768;2022-10-16T02:22:15;9.87;;;3.20;;
5867;SDS011;2960;49.142;7.768;2022-10-16T02:25:03;9.80;;;3.23;;
5867;SDS011;2960;49.142;7.768;2022-10-16T02:27:35;9.53;;;3.40;;
5867;SDS011;2960;49.142;7.768;2022-10-16T02:30:11;9.57;;;3.20;;
5867;SDS011;2960;49.142;7.768;2022-10-16T02:32:44;9.67;;;3.30;;
5867;SDS011;2960;49.142;7.768;2022-10-16T02:35:15;12.00;;;3.13;;
5867;SDS011;2960;49.142;7.768;2022-10-16T02:37:45;10.20;;;3.30;;
5867;SDS011;2960;49.142;7.768;2022-10-16T02:40:14;9.67;;;3.47;;
5867;SDS011;2960;49.142;7.768;2022-10-16T02:42:43;9.67;;;3.27;;
5867;SDS011;2960;49.142;7.768;2022-10-16T02:45:11;10.00;;;3.53;;
5867;SDS011;2960;49.142;7.768;2022-10-16T02:47:38;9.70;;;3.27;;
5867;SDS011;2960;49.142;7.768;2022-10-16T02:50:06;11.13;;;3.30;;
5867;SDS011;2960;49.142;7.768;2022-10-16T02:52:34;9.77;;;3.30;;
5867;SDS011;2960;49.142;7.768;2022-10-16T02:55:01;9.80;;;3.50;;
5867;SDS011;2960;49.142;7.768;2022-10-16T02:57:28;10.20;;;3.47;;
5867;SDS011;2960;49.142;7.768;2022-10-16T02:59:59;9.77;;;3.20;;
5867;SDS011;2960;49.142;7.768;2022-10-16T03:02:27;10.70;;;3.53;;
5867;SDS011;2960;49.142;7.768;2022-10-16T03:04:54;10.33;;;3.27;;
5867;SDS011;2960;49.142;7.768;2022-10-16T03:07:21;9.77;;;3.40;;
5867;SDS011;2960;49.142;7.768;2022-10-16T03:09:48;10.00;;;3.40;;
5867;SDS011;2960;49.142;7.768;2022-10-16T03:12:16;10.27;;;3.20;;
5867;SDS011;2960;49.142;7.768;2022-10-16T03:14:43;9.90;;;3.43;;
5867;SDS011;2960;49.142;7.768;2022-10-16T03:17:10;10.17;;;3.40;;
5867;SDS011;2960;49.142;7.768;2022-10-16T03:19:39;10.10;;;3.80;;
5867;SDS011;2960;49.142;7.768;2022-10-16T03:22:06;10.00;;;3.30;;
5867;SDS011;2960;49.142;7.768;2022-10-16T03:24:33;10.00;;;3.53;;
5867;SDS011;2960;49.142;7.768;2022-10-16T03:27:00;9.80;;;3.40;;
5867;SDS011;2960;49.142;7.768;2022-10-16T03:29:27;9.70;;;3.47;;
5867;SDS011;2960;49.142;7.768;2022-10-16T03:31:55;10.93;;;3.37;;
5867;SDS011;2960;49.142;7.768;2022-10-16T03:34:22;9.70;;;3.30;;
5867;SDS011;2960;49.142;7.768;2022-10-16T03:36:50;10.00;;;3.43;;
5867;SDS011;2960;49.142;7.768;2022-10-16T03:39:18;9.60;;;3.13;;
5867;SDS011;2960;49.142;7.768;2022-10-16T03:41:45;9.57;;;3.20;;
5867;SDS011;2960;49.142;7.768;2022-10-16T03:44:12;11.30;;;3.30;;
5867;SDS011;2960;49.142;7.768;2022-10-16T03:46:39;9.77;;;3.30;;
5867;SDS011;2960;49.142;7.768;2022-10-16T03:49:09;9.80;;;3.20;;
5867;SDS011;2960;49.142;7.768;2022-10-16T03:51:39;9.97;;;3.23;;
5867;SDS011;2960;49.142;7.768;2022-10-16T03:54:07;9.57;;;3.20;;
5867;SDS011;2960;49.142;7.768;2022-10-16T03:56:35;10.20;;;3.20;;
5867;SDS011;2960;49.142;7.768;2022-10-16T03:59:02;10.00;;;3.40;;
5867;SDS011;2960;49.142;7.768;2022-10-16T04:01:29;9.67;;;3.23;;
5867;SDS011;2960;49.142;7.768;2022-10-16T04:03:56;9.70;;;3.23;;
5867;SDS011;2960;49.142;7.768;2022-10-16T04:06:24;10.00;;;3.43;;
5867;SDS011;2960;49.142;7.768;2022-10-16T04:08:51;10.30;;;3.27;;
5867;SDS011;2960;49.142;7.768;2022-10-16T04:11:19;9.60;;;2.90;;
5867;SDS011;2960;49.142;7.768;2022-10-16T04:13:46;9.70;;;3.00;;
5867;SDS011;2960;49.142;7.768;2022-10-16T04:16:13;9.97;;;3.37;;
5867;SDS011;2960;49.142;7.768;2022-10-16T04:18:40;9.50;;;3.03;;
5867;SDS011;2960;49.142;7.768;2022-10-16T04:21:07;9.47;;;3.00;;
5867;SDS011;2960;49.142;7.768;2022-10-16T04:23:35;9.57;;;2.90;;
5867;SDS011;2960;49.142;7.768;2022-10-16T04:26:02;10.93;;;3.27;;
5867;SDS011;2960;49.142;7.768;2022-10-16T04:28:30;9.50;;;3.17;;
5867;SDS011;2960;49.142;7.768;2022-10-16T04:30:57;9.67;;;3.00;;
5867;SDS011;2960;49.142;7.768;2022-10-16T04:33:24;10.17;;;3.40;;
5867;SDS011;2960;49.142;7.768;2022-10-16T04:35:55;10.10;;;3.20;;
5867;SDS011;2960;49.142;7.768;2022-10-16T04:38:23;9.73;;;3.27;;
5867;SDS011;2960;49.142;7.768;2022-10-16T04:40:51;9.63;;;2.97;;
5867;SDS011;2960;49.142;7.768;2022-10-16T04:43:18;9.47;;;2.93;;
5867;SDS011;2960;49.142;7.768;2022-10-16T04:45:47;9.70;;;2.93;;
5867;SDS011;2960;49.142;7.768;2022-10-16T04:48:15;9.70;;;2.90;;
5867;SDS011;2960;49.142;7.768;2022-10-16T04:50:42;13.20;;;3.30;;
5867;SDS011;2960;49.142;7.768;2022-10-16T04:53:09;11.40;;;3.23;;
5867;SDS011;2960;49.142;7.768;2022-10-16T04:55:37;9.63;;;3.20;;
5867;SDS011;2960;49.142;7.768;2022-10-16T04:58:04;9.70;;;3.10;;
5867;SDS011;2960;49.142;7.768;2022-10-16T05:00:31;9.60;;;3.00;;
5867;SDS011;2960;49.142;7.768;2022-10-16T05:03:00;9.67;;;3.20;;
5867;SDS011;2960;49.142;7.768;2022-10-16T05:05:31;9.90;;;3.20;;
5867;SDS011;2960;49.142;7.768;2022-10-16T05:07:58;9.67;;;3.20;;
5867;SDS011;2960;49.142;7.768;2022-10-16T05:10:25;9.80;;;3.50;;
5867;SDS011;2960;49.142;7.768;2022-10-16T05:12:52;9.83;;;3.50;;
5867;SDS011;2960;49.142;7.768;2022-10-16T05:15:19;9.97;;;3.10;;
5867;SDS011;2960;49.142;7.768;2022-10-16T05:17:46;10.10;;;3.53;;
5867;SDS011;2960;49.142;7.768;2022-10-16T05:20:15;9.97;;;3.27;;
5867;SDS011;2960;49.142;7.768;2022-10-16T05:22:42;9.67;;;3.20;;
5867;SDS011;2960;49.142;7.768;2022-10-16T05:25:09;10.10;;;3.40;;
5867;SDS011;2960;49.142;7.768;2022-10-16T05:27:37;10.50;;;3.70;;
5867;SDS011;2960;49.142;7.768;2022-10-16T05:30:05;12.33;;;3.50;;
5867;SDS011;2960;49.142;7.768;2022-10-16T05:32:33;11.50;;;3.33;;
5867;SDS011;2960;49.142;7.768;2022-10-16T05:35:00;9.60;;;3.10;;
5867;SDS011;2960;49.142;7.768;2022-10-16T05:37:29;10.47;;;3.60;;
5867;SDS011;2960;49.142;7.768;2022-10-16T05:39:56;10.13;;;3.50;;
5867;SDS011;2960;49.142;7.768;2022-10-16T05:42:23;10.17;;;3.60;;
5867;SDS011;2960;49.142;7.768;2022-10-16T05:44:50;9.77;;;3.43;;
5867;SDS011;2960;49.142;7.768;2022-10-16T05:47:17;9.83;;;3.43;;
5867;SDS011;2960;49.142;7.768;2022-10-16T05:49:48;9.80;;;3.40;;
5867;SDS011;2960;49.142;7.768;2022-10-16T05:52:15;10.17;;;3.67;;
5867;SDS011;2960;49.142;7.768;2022-10-16T05:54:43;10.20;;;3.30;;
5867;SDS011;2960;49.142;7.768;2022-10-16T05:57:11;9.57;;;3.10;;
5867;SDS011;2960;49.142;7.768;2022-10-16T05:59:38;9.80;;;2.90;;
5867;SDS011;2960;49.142;7.768;2022-10-16T06:02:05;10.00;;;3.30;;
5867;SDS011;2960;49.142;7.768;2022-10-16T06:04:34;9.70;;;2.90;;
5867;SDS011;2960;49.142;7.768;2022-10-16T06:07:01;9.63;;;3.20;;
5867;SDS011;2960;49.142;7.768;2022-10-16T06:09:28;10.17;;;3.50;;
5867;SDS011;2960;49.142;7.768;2022-10-16T06:11:57;9.43;;;2.90;;
5867;SDS011;2960;49.142;7.768;2022-10-16T06:14:24;9.47;;;2.90;;
5867;SDS011;2960;49.142;7.768;2022-10-16T06:16:51;9.53;;;2.83;;
5867;SDS011;2960;49.142;7.768;2022-10-16T06:19:18;9.77;;;3.13;;
5867;SDS011;2960;49.142;7.768;2022-10-16T06:21:45;9.67;;;3.17;;
5867;SDS011;2960;49.142;7.768;2022-10-16T06:24:14;9.70;;;3.33;;
5867;SDS011;2960;49.142;7.768;2022-10-16T06:26:41;9.83;;;3.50;;
5867;SDS011;2960;49.142;7.768;2022-10-16T06:29:10;9.87;;;3.53;;
5867;SDS011;2960;49.142;7.768;2022-10-16T06:31:37;10.53;;;3.37;;
5867;SDS011;2960;49.142;7.768;2022-10-16T06:34:04;9.90;;;3.33;;
5867;SDS011;2960;49.142;7.768;2022-10-16T06:36:34;9.70;;;3.20;;
5867;SDS011;2960;49.142;7.768;2022-10-16T06:39:01;10.10;;;3.50;;
5867;SDS011;2960;49.142;7.768;2022-10-16T06:41:29;10.00;;;3.10;;
5867;SDS011;2960;49.142;7.768;2022-10-16T06:43:56;9.87;;;3.40;;
5867;SDS011;2960;49.142;7.768;2022-10-16T06:46:25;9.73;;;3.20;;
5867;SDS011;2960;49.142;7.768;2022-10-16T06:48:53;10.10;;;3.30;;
5867;SDS011;2960;49.142;7.768;2022-10-16T06:51:21;9.80;;;3.33;;
5867;SDS011;2960;49.142;7.768;2022-10-16T06:53:50;10.20;;;3.40;;
5867;SDS011;2960;49.142;7.768;2022-10-16T06:56:19;9.80;;;3.27;;
5867;SDS011;2960;49.142;7.768;2022-10-16T06:58:48;10.00;;;3.60;;
5867;SDS011;2960;49.142;7.768;2022-10-16T07:01:17;10.00;;;3.40;;
5867;SDS011;2960;49.142;7.768;2022-10-16T07:03:49;9.80;;;3.37;;
5867;SDS011;2960;49.142;7.768;2022-10-16T07:06:18;10.40;;;3.60;;
5867;SDS011;2960;49.142;7.768;2022-10-16T07:08:46;9.80;;;3.33;;
5867;SDS011;2960;49.142;7.768;2022-10-16T07:11:15;10.07;;;3.50;;
5867;SDS011;2960;49.142;7.768;2022-10-16T07:13:46;9.80;;;3.40;;
5867;SDS011;2960;49.142;7.768;2022-10-16T07:16:16;9.83;;;3.43;;
5867;SDS011;2960;49.142;7.768;2022-10-16T07:18:45;10.00;;;3.30;;
5867;SDS011;2960;49.142;7.768;2022-10-16T07:21:16;10.27;;;3.53;;
5867;SDS011;2960;49.142;7.768;2022-10-16T07:23:45;10.17;;;3.27;;
5867;SDS011;2960;49.142;7.768;2022-10-16T07:26:16;10.10;;;3.43;;
5867;SDS011;2960;49.142;7.768;2022-10-16T07:28:43;9.90;;;3.40;;
5867;SDS011;2960;49.142;7.768;2022-10-16T07:31:11;9.83;;;3.40;;
5867;SDS011;2960;49.142;7.768;2022-10-16T07:33:43;9.90;;;3.50;;
5867;SDS011;2960;49.142;7.768;2022-10-16T07:36:13;10.17;;;3.53;;
5867;SDS011;2960;49.142;7.768;2022-10-16T07:38:42;10.10;;;3.43;;
5867;SDS011;2960;49.142;7.768;2022-10-16T07:41:10;10.10;;;3.40;;
5867;SDS011;2960;49.142;7.768;2022-10-16T07:43:44;9.87;;;3.40;;
5867;SDS011;2960;49.142;7.768;2022-10-16T07:46:12;9.80;;;3.27;;
5867;SDS011;2960;49.142;7.768;2022-10-16T07:48:41;10.20;;;3.70;;
5867;SDS011;2960;49.142;7.768;2022-10-16T07:51:13;10.03;;;3.30;;
5867;SDS011;2960;49.142;7.768;2022-10-16T07:53:44;9.70;;;3.30;;
5867;SDS011;2960;49.142;7.768;2022-10-16T07:56:12;9.83;;;3.30;;
5867;SDS011;2960;49.142;7.768;2022-10-16T07:58:39;9.93;;;3.30;;
5867;SDS011;2960;49.142;7.768;2022-10-16T08:01:07;10.30;;;3.40;;
5867;SDS011;2960;49.142;7.768;2022-10-16T08:03:35;10.50;;;3.40;;
5867;SDS011;2960;49.142;7.768;2022-10-16T08:06:03;10.30;;;3.77;;
5867;SDS011;2960;49.142;7.768;2022-10-16T08:08:34;10.10;;;3.67;;
5867;SDS011;2960;49.142;7.768;2022-10-16T08:11:01;10.10;;;3.20;;
5867;SDS011;2960;49.142;7.768;2022-10-16T08:13:29;10.30;;;3.40;;
5867;SDS011;2960;49.142;7.768;2022-10-16T08:15:56;10.03;;;3.30;;
5867;SDS011;2960;49.142;7.768;2022-10-16T08:18:26;10.13;;;3.40;;
5867;SDS011;2960;49.142;7.768;2022-10-16T08:20:56;11.10;;;3.40;;
5867;SDS011;2960;49.142;7.768;2022-10-16T08:23:25;10.17;;;3.50;;
5867;SDS011;2960;49.142;7.768;2022-10-16T08:25:55;10.40;;;3.90;;
5867;SDS011;2960;49.142;7.768;2022-10-16T08:28:29;10.27;;;3.60;;
5867;SDS011;2960;49.142;7.768;2022-10-16T08:31:04;10.83;;;3.70;;
5867;SDS011;2960;49.142;7.768;2022-10-16T08:33:33;10.53;;;3.60;;
5867;SDS011;2960;49.142;7.768;2022-10-16T08:36:01;10.80;;;3.60;;
5867;SDS011;2960;49.142;7.768;2022-10-16T08:38:29;10.10;;;3.30;;
5867;SDS011;2960;49.142;7.768;2022-10-16T08:41:15;10.40;;;3.70;;
5867;SDS011;2960;49.142;7.768;2022-10-16T08:44:01;10.03;;;3.20;;
5867;SDS011;2960;49.142;7.768;2022-10-16T08:46:47;10.10;;;3.30;;
5867;SDS011;2960;49.142;7.768;2022-10-16T08:49:25;10.73;;;3.20;;
5867;SDS011;2960;49.142;7.768;2022-10-16T08:51:53;10.43;;;3.70;;
5867;SDS011;2960;49.142;7.768;2022-10-16T08:54:27;10.23;;;3.50;;
5867;SDS011;2960;49.142;7.768;2022-10-16T08:57:07;10.60;;;3.60;;
5867;SDS011;2960;49.142;7.768;2022-10-16T08:59:40;10.90;;;4.00;;
5867;SDS011;2960;49.142;7.768;2022-10-16T09:02:16;10.80;;;3.60;;
5867;SDS011;2960;49.142;7.768;2022-10-16T09:05:03;10.80;;;3.87;;
5867;SDS011;2960;49.142;7.768;2022-10-16T09:08:00;11.00;;;3.90;;
5867;SDS011;2960;49.142;7.768;2022-10-16T09:10:37;10.77;;;4.00;;
5867;SDS011;2960;49.142;7.768;2022-10-16T09:13:17;10.97;;;4.50;;
5867;SDS011;2960;49.142;7.768;2022-10-16T09:18:32;10.93;;;4.73;;
5867;SDS011;2960;49.142;7.768;2022-10-16T09:21:09;11.50;;;4.93;;
5867;SDS011;2960;49.142;7.768;2022-10-16T09:23:41;11.43;;;5.00;;
5867;SDS011;2960;49.142;7.768;2022-10-16T09:26:09;11.07;;;5.07;;
5867;SDS011;2960;49.142;7.768;2022-10-16T09:28:40;11.17;;;5.10;;
5867;SDS011;2960;49.142;7.768;2022-10-16T09:31:10;11.43;;;4.67;;
5867;SDS011;2960;49.142;7.768;2022-10-16T09:33:48;11.30;;;4.90;;
5867;SDS011;2960;49.142;7.768;2022-10-16T09:36:20;12.47;;;4.97;;
5867;SDS011;2960;49.142;7.768;2022-10-16T09:39:01;11.40;;;4.77;;
5867;SDS011;2960;49.142;7.768;2022-10-16T09:41:30;11.33;;;4.87;;
5867;SDS011;2960;49.142;7.768;2022-10-16T09:44:01;11.00;;;4.70;;
5867;SDS011;2960;49.142;7.768;2022-10-16T09:46:31;12.03;;;5.13;;
5867;SDS011;2960;49.142;7.768;2022-10-16T09:49:02;11.10;;;4.80;;
5867;SDS011;2960;49.142;7.768;2022-10-16T09:51:32;11.23;;;5.00;;
5867;SDS011;2960;49.142;7.768;2022-10-16T09:54:10;11.30;;;5.17;;
5867;SDS011;2960;49.142;7.768;2022-10-16T09:56:41;11.40;;;5.20;;
5867;SDS011;2960;49.142;7.768;2022-10-16T09:59:11;11.83;;;5.00;;
5867;SDS011;2960;49.142;7.768;2022-10-16T10:01:40;11.30;;;5.10;;
5867;SDS011;2960;49.142;7.768;2022-10-16T10:04:17;11.40;;;4.97;;
5867;SDS011;2960;49.142;7.768;2022-10-16T10:06:46;11.10;;;4.97;;
5867;SDS011;2960;49.142;7.768;2022-10-16T10:09:16;11.30;;;5.10;;
5867;SDS011;2960;49.142;7.768;2022-10-16T10:11:48;11.30;;;5.03;;
5867;SDS011;2960;49.142;7.768;2022-10-16T10:14:21;11.30;;;4.97;;
5867;SDS011;2960;49.142;7.768;2022-10-16T10:17:02;12.07;;;5.10;;
5867;SDS011;2960;49.142;7.768;2022-10-16T10:19:44;11.40;;;4.90;;
5867;SDS011;2960;49.142;7.768;2022-10-16T10:25:15;11.33;;;4.90;;
5867;SDS011;2960;49.142;7.768;2022-10-16T10:28:07;11.70;;;4.60;;
5867;SDS011;2960;49.142;7.768;2022-10-16T10:30:56;12.40;;;4.80;;
5867;SDS011;2960;49.142;7.768;2022-10-16T10:33:36;11.73;;;4.97;;
5867;SDS011;2960;49.142;7.768;2022-10-16T10:36:14;10.90;;;4.70;;
5867;SDS011;2960;49.142;7.768;2022-10-16T10:38:52;11.60;;;4.90;;
5867;SDS011;2960;49.142;7.768;2022-10-16T10:41:34;11.30;;;4.70;;
5867;SDS011;2960;49.142;7.768;2022-10-16T10:47:41;10.90;;;4.70;;
5867;SDS011;2960;49.142;7.768;2022-10-16T10:50:21;12.17;;;5.20;;
5867;SDS011;2960;49.142;7.768;2022-10-16T10:53:04;11.20;;;4.47;;
5867;SDS011;2960;49.142;7.768;2022-10-16T10:55:39;11.57;;;4.87;;
5867;SDS011;2960;49.142;7.768;2022-10-16T10:58:27;11.20;;;4.80;;
5867;SDS011;2960;49.142;7.768;2022-10-16T11:01:37;11.37;;;4.87;;
5867;SDS011;2960;49.142;7.768;2022-10-16T11:04:27;11.40;;;4.70;;
5867;SDS011;2960;49.142;7.768;2022-10-16T11:07:13;11.00;;;4.30;;
5867;SDS011;2960;49.142;7.768;2022-10-16T11:09:47;11.50;;;5.03;;
5867;SDS011;2960;49.142;7.768;2022-10-16T11:12:20;10.90;;;4.40;;
5867;SDS011;2960;49.142;7.768;2022-10-16T11:14:53;11.20;;;4.87;;
5867;SDS011;2960;49.142;7.768;2022-10-16T11:17:27;11.20;;;4.77;;
5867;SDS011;2960;49.142;7.768;2022-10-16T11:19:58;11.93;;;4.93;;
5867;SDS011;2960;49.142;7.768;2022-10-16T11:22:32;11.17;;;4.70;;
5867;SDS011;2960;49.142;7.768;2022-10-16T11:25:04;10.93;;;4.70;;
5867;SDS011;2960;49.142;7.768;2022-10-16T11:27:43;11.33;;;4.80;;
5867;SDS011;2960;49.142;7.768;2022-10-16T11:30:14;11.20;;;4.90;;
5867;SDS011;2960;49.142;7.768;2022-10-16T11:33:02;11.80;;;5.20;;
5867;SDS011;2960;49.142;7.768;2022-10-16T11:35:47;12.40;;;5.10;;
5867;SDS011;2960;49.142;7.768;2022-10-16T11:38:21;11.10;;;4.73;;
5867;SDS011;2960;49.142;7.768;2022-10-16T11:40:56;11.07;;;4.90;;
5867;SDS011;2960;49.142;7.768;2022-10-16T11:43:31;11.17;;;4.80;;
5867;SDS011;2960;49.142;7.768;2022-10-16T11:46:04;11.80;;;5.20;;
5867;SDS011;2960;49.142;7.768;2022-10-16T11:48:39;11.90;;;5.40;;
5867;SDS011;2960;49.142;7.768;2022-10-16T11:51:14;11.50;;;5.30;;
5867;SDS011;2960;49.142;7.768;2022-10-16T11:53:50;11.33;;;5.27;;
5867;SDS011;2960;49.142;7.768;2022-10-16T11:56:25;11.47;;;5.17;;
5867;SDS011;2960;49.142;7.768;2022-10-16T11:58:54;11.13;;;4.93;;
5867;SDS011;2960;49.142;7.768;2022-10-16T12:01:28;11.17;;;5.20;;
5867;SDS011;2960;49.142;7.768;2022-10-16T12:04:02;11.20;;;5.20;;
5867;SDS011;2960;49.142;7.768;2022-10-16T12:06:42;12.37;;;5.63;;
5867;SDS011;2960;49.142;7.768;2022-10-16T12:09:15;11.27;;;4.90;;
5867;SDS011;2960;49.142;7.768;2022-10-16T12:11:49;11.20;;;5.17;;
5867;SDS011;2960;49.142;7.768;2022-10-16T12:19:59;12.07;;;5.30;;
5867;SDS011;2960;49.142;7.768;2022-10-16T12:22:40;11.60;;;4.90;;
5867;SDS011;2960;49.142;7.768;2022-10-16T12:25:19;11.40;;;4.70;;
5867;SDS011;2960;49.142;7.768;2022-10-16T12:28:00;11.13;;;4.57;;
5867;SDS011;2960;49.142;7.768;2022-10-16T12:30:31;11.60;;;4.90;;
5867;SDS011;2960;49.142;7.768;2022-10-16T12:33:03;12.20;;;4.70;;
5867;SDS011;2960;49.142;7.768;2022-10-16T12:35:32;11.03;;;4.70;;
5867;SDS011;2960;49.142;7.768;2022-10-16T12:38:08;11.30;;;4.90;;
5867;SDS011;2960;49.142;7.768;2022-10-16T12:40:44;12.10;;;4.90;;
5867;SDS011;2960;49.142;7.768;2022-10-16T12:46:21;11.63;;;4.97;;
5867;SDS011;2960;49.142;7.768;2022-10-16T12:49:05;11.63;;;4.70;;
5867;SDS011;2960;49.142;7.768;2022-10-16T12:51:56;11.30;;;5.03;;
5867;SDS011;2960;49.142;7.768;2022-10-16T12:54:25;12.00;;;4.70;;
5867;SDS011;2960;49.142;7.768;2022-10-16T12:57:03;11.30;;;4.80;;
5867;SDS011;2960;49.142;7.768;2022-10-16T12:59:51;11.50;;;5.20;;
5867;SDS011;2960;49.142;7.768;2022-10-16T13:02:34;11.67;;;5.20;;
5867;SDS011;2960;49.142;7.768;2022-10-16T13:05:26;11.57;;;5.10;;
5867;SDS011;2960;49.142;7.768;2022-10-16T13:08:05;12.03;;;5.10;;
5867;SDS011;2960;49.142;7.768;2022-10-16T13:10:53;11.53;;;4.87;;
5867;SDS011;2960;49.142;7.768;2022-10-16T13:13:46;11.20;;;4.50;;
5867;SDS011;2960;49.142;7.768;2022-10-16T13:16:34;10.90;;;4.50;;
5867;SDS011;2960;49.142;7.768;2022-10-16T13:19:17;11.27;;;4.90;;
5867;SDS011;2960;49.142;7.768;2022-10-16T13:21:54;11.03;;;4.30;;
5867;SDS011;2960;49.142;7.768;2022-10-16T13:24:37;11.30;;;5.00;;
5867;SDS011;2960;49.142;7.768;2022-10-16T13:27:24;11.70;;;5.10;;
5867;SDS011;2960;49.142;7.768;2022-10-16T13:30:02;11.17;;;4.87;;
5867;SDS011;2960;49.142;7.768;2022-10-16T13:32:43;12.07;;;4.60;;
5867;SDS011;2960;49.142;7.768;2022-10-16T13:35:20;13.70;;;4.63;;
5867;SDS011;2960;49.142;7.768;2022-10-16T13:37:49;10.97;;;4.70;;
5867;SDS011;2960;49.142;7.768;2022-10-16T13:40:18;10.87;;;4.50;;
5867;SDS011;2960;49.142;7.768;2022-10-16T13:42:48;11.93;;;4.77;;
5867;SDS011;2960;49.142;7.768;2022-10-16T13:45:19;10.90;;;4.17;;
5867;SDS011;2960;49.142;7.768;2022-10-16T13:47:49;11.30;;;4.80;;
5867;SDS011;2960;49.142;7.768;2022-10-16T13:50:17;13.10;;;4.53;;
5867;SDS011;2960;49.142;7.768;2022-10-16T13:52:44;10.87;;;4.10;;
5867;SDS011;2960;49.142;7.768;2022-10-16T13:55:15;11.13;;;4.50;;
5867;SDS011;2960;49.142;7.768;2022-10-16T13:57:44;11.33;;;4.33;;
5867;SDS011;2960;49.142;7.768;2022-10-16T14:00:18;12.00;;;4.67;;
5867;SDS011;2960;49.142;7.768;2022-10-16T14:02:51;11.00;;;4.37;;
5867;SDS011;2960;49.142;7.768;2022-10-16T14:05:24;11.73;;;4.80;;
5867;SDS011;2960;49.142;7.768;2022-10-16T14:07:52;11.10;;;4.50;;
5867;SDS011;2960;49.142;7.768;2022-10-16T14:10:25;11.00;;;4.33;;
5867;SDS011;2960;49.142;7.768;2022-10-16T14:12:59;10.80;;;4.27;;
5867;SDS011;2960;49.142;7.768;2022-10-16T14:15:29;11.07;;;4.30;;
5867;SDS011;2960;49.142;7.768;2022-10-16T14:17:59;11.10;;;4.60;;
5867;SDS011;2960;49.142;7.768;2022-10-16T14:20:27;12.07;;;5.00;;
5867;SDS011;2960;49.142;7.768;2022-10-16T14:22:58;11.23;;;4.80;;
5867;SDS011;2960;49.142;7.768;2022-10-16T14:25:28;11.30;;;4.50;;
5867;SDS011;2960;49.142;7.768;2022-10-16T14:27:57;11.20;;;4.30;;
5867;SDS011;2960;49.142;7.768;2022-10-16T14:30:27;11.20;;;4.73;;
5867;SDS011;2960;49.142;7.768;2022-10-16T14:32:56;10.80;;;4.50;;
5867;SDS011;2960;49.142;7.768;2022-10-16T14:35:27;10.83;;;4.30;;
5867;SDS011;2960;49.142;7.768;2022-10-16T14:37:58;11.07;;;4.67;;
5867;SDS011;2960;49.142;7.768;2022-10-16T14:40:28;10.97;;;4.77;;
5867;SDS011;2960;49.142;7.768;2022-10-16T14:42:58;11.10;;;4.70;;
5867;SDS011;2960;49.142;7.768;2022-10-16T14:45:28;10.93;;;4.13;;
5867;SDS011;2960;49.142;7.768;2022-10-16T14:48:00;10.90;;;4.40;;
5867;SDS011;2960;49.142;7.768;2022-10-16T14:50:31;11.10;;;4.50;;
5867;SDS011;2960;49.142;7.768;2022-10-16T14:52:58;11.40;;;4.37;;
5867;SDS011;2960;49.142;7.768;2022-10-16T14:55:25;10.90;;;4.40;;
5867;SDS011;2960;49.142;7.768;2022-10-16T14:57:52;11.10;;;4.40;;
5867;SDS011;2960;49.142;7.768;2022-10-16T15:00:20;14.90;;;4.50;;
5867;SDS011;2960;49.142;7.768;2022-10-16T15:02:50;12.60;;;4.30;;
5867;SDS011;2960;49.142;7.768;2022-10-16T15:05:19;11.63;;;4.60;;
5867;SDS011;2960;49.142;7.768;2022-10-16T15:07:48;11.03;;;4.63;;
5867;SDS011;2960;49.142;7.768;2022-10-16T15:10:16;10.90;;;4.70;;
5867;SDS011;2960;49.142;7.768;2022-10-16T15:12:44;10.90;;;4.37;;
5867;SDS011;2960;49.142;7.768;2022-10-16T15:15:30;10.77;;;4.20;;
5867;SDS011;2960;49.142;7.768;2022-10-16T15:18:01;12.27;;;5.10;;
5867;SDS011;2960;49.142;7.768;2022-10-16T15:20:31;11.30;;;4.73;;
5867;SDS011;2960;49.142;7.768;2022-10-16T15:23:01;10.90;;;4.60;;
5867;SDS011;2960;49.142;7.768;2022-10-16T15:25:34;11.33;;;4.83;;
5867;SDS011;2960;49.142;7.768;2022-10-16T15:28:05;11.17;;;4.77;;
5867;SDS011;2960;49.142;7.768;2022-10-16T15:30:36;11.37;;;4.77;;
5867;SDS011;2960;49.142;7.768;2022-10-16T15:33:09;10.90;;;4.60;;
5867;SDS011;2960;49.142;7.768;2022-10-16T15:35:41;11.50;;;5.20;;
5867;SDS011;2960;49.142;7.768;2022-10-16T15:38:11;12.87;;;5.17;;
5867;SDS011;2960;49.142;7.768;2022-10-16T15:40:39;12.10;;;5.40;;
5867;SDS011;2960;49.142;7.768;2022-10-16T15:43:07;11.00;;;5.00;;
5867;SDS011;2960;49.142;7.768;2022-10-16T15:45:35;11.20;;;5.10;;
5867;SDS011;2960;49.142;7.768;2022-10-16T15:48:02;11.40;;;5.30;;
5867;SDS011;2960;49.142;7.768;2022-10-16T15:50:30;11.90;;;4.80;;
5867;SDS011;2960;49.142;7.768;2022-10-16T15:52:59;11.10;;;4.50;;